createdAt,value
2019-05-17T00:00:47.472Z,43.10
2019-05-17T00:03:17.155Z,42.63
2019-05-17T00:05:46.770Z,40.57
2019-05-17T00:08:16.479Z,42.10
2019-05-17T00:10:47.557Z,40.83
2019-05-17T00:13:17.516Z,43.87
2019-05-17T00:15:47.385Z,44.00
2019-05-17T00:18:17.251Z,42.53
2019-05-17T00:20:46.862Z,43.80
2019-05-17T00:23:17.360Z,38.67
2019-05-17T00:25:47.155Z,36.23
2019-05-17T00:28:16.511Z,37.30
2019-05-17T00:30:46.578Z,39.93
2019-05-17T00:33:16.992Z,37.20
2019-05-17T00:35:46.976Z,38.93
2019-05-17T00:38:16.939Z,37.57
2019-05-17T00:40:47.004Z,38.97
2019-05-17T00:43:17.023Z,39.50
2019-05-17T00:45:46.835Z,41.13
2019-05-17T00:48:17.171Z,41.90
2019-05-17T00:50:53.218Z,40.03
2019-05-17T00:53:18.142Z,44.80
2019-05-17T00:55:47.384Z,42.00
2019-05-17T00:58:17.389Z,43.30
2019-05-17T01:00:47.866Z,43.60
2019-05-17T01:03:17.479Z,43.73
2019-05-17T01:05:47.371Z,42.67
2019-05-17T01:08:17.418Z,44.63
2019-05-17T01:10:47.504Z,42.20
2019-05-17T01:13:17.267Z,46.30
2019-05-17T01:15:47.362Z,48.73
2019-05-17T01:18:16.935Z,42.80
2019-05-17T01:20:47.458Z,47.53
2019-05-17T01:23:16.969Z,47.40
2019-05-17T01:25:48.057Z,43.30
2019-05-17T01:28:17.149Z,49.43
2019-05-17T01:30:46.459Z,43.83
2019-05-17T01:33:17.113Z,45.37
2019-05-17T01:35:46.667Z,46.93
2019-05-17T01:38:17.792Z,45.63
2019-05-17T01:40:47.169Z,45.57
2019-05-17T01:43:16.773Z,46.87
2019-05-17T01:45:48.037Z,45.93
2019-05-17T01:48:17.217Z,48.40
2019-05-17T01:50:46.551Z,52.37
2019-05-17T01:53:16.644Z,50.27
2019-05-17T01:55:46.607Z,47.10
2019-05-17T01:58:16.481Z,54.37
2019-05-17T02:00:46.523Z,58.93
2019-05-17T02:03:17.317Z,49.83
2019-05-17T02:05:47.330Z,54.23
2019-05-17T02:08:17.180Z,45.43
2019-05-17T02:10:46.735Z,47.27
2019-05-17T02:13:16.578Z,45.73
2019-05-17T02:15:47.005Z,49.67
2019-05-17T02:18:17.388Z,52.43
2019-05-17T02:20:46.744Z,45.63
2019-05-17T02:23:17.374Z,50.53
2019-05-17T02:25:47.286Z,49.63
2019-05-17T02:28:16.683Z,42.90
2019-05-17T02:30:46.034Z,43.43
2019-05-17T02:33:15.446Z,47.60
2019-05-17T02:35:44.803Z,43.43
2019-05-17T02:38:14.191Z,43.23
2019-05-17T02:40:43.508Z,43.43
2019-05-17T02:43:13.286Z,38.93
2019-05-17T02:45:43.511Z,37.50
2019-05-17T02:48:13.498Z,37.67
2019-05-17T02:50:47.775Z,40.93
2019-05-17T02:53:15.128Z,37.97
2019-05-17T02:55:44.366Z,38.03
2019-05-17T02:58:13.675Z,35.90
2019-05-17T03:00:44.289Z,36.77
2019-05-17T03:03:13.797Z,43.07
2019-05-17T03:05:43.327Z,36.77
2019-05-17T03:08:12.572Z,40.73
2019-05-17T03:10:43.256Z,39.10
2019-05-17T03:13:13.958Z,35.13
2019-05-17T03:15:43.646Z,34.87
2019-05-17T03:18:13.527Z,37.53
2019-05-17T03:20:43.319Z,40.00
2019-05-17T03:23:13.122Z,37.90
2019-05-17T03:25:43.996Z,39.20
2019-05-17T03:28:13.584Z,45.93
2019-05-17T03:30:46.619Z,36.57
2019-05-17T03:33:16.463Z,36.83
2019-05-17T03:35:46.465Z,34.20
2019-05-17T03:38:15.905Z,34.93
2019-05-17T03:41:07.515Z,37.03
2019-05-17T03:43:16.069Z,34.47
2019-05-17T03:45:45.468Z,35.80
2019-05-17T03:48:14.885Z,40.97
2019-05-17T03:50:44.161Z,39.37
2019-05-17T03:53:13.467Z,38.60
2019-05-17T03:55:43.122Z,38.97
2019-05-17T03:58:12.823Z,38.07
2019-05-17T04:00:42.832Z,32.93
2019-05-17T04:03:13.629Z,32.57
2019-05-17T04:05:43.224Z,31.73
2019-05-17T04:08:13.882Z,33.20
2019-05-17T04:10:43.391Z,32.30
2019-05-17T04:13:13.324Z,30.37
2019-05-17T04:15:43.348Z,32.57
2019-05-17T04:18:13.268Z,31.80
2019-05-17T04:20:43.500Z,33.03
2019-05-17T04:23:13.214Z,35.43
2019-05-17T04:25:43.480Z,32.47
2019-05-17T04:28:13.870Z,32.90
2019-05-17T04:30:43.635Z,26.90
2019-05-17T04:33:13.080Z,24.83
2019-05-17T04:35:43.175Z,23.67
2019-05-17T04:38:12.836Z,23.73
2019-05-17T04:40:43.131Z,24.70
2019-05-17T04:43:13.614Z,26.20
2019-05-17T04:45:43.328Z,26.53
2019-05-17T04:48:13.388Z,22.63
2019-05-17T04:50:43.042Z,24.27
2019-05-17T04:53:13.257Z,25.53
2019-05-17T04:55:43.283Z,24.90
2019-05-17T04:58:13.784Z,22.80
2019-05-17T05:00:43.524Z,24.93
2019-05-17T05:03:12.987Z,23.80
2019-05-17T05:05:42.922Z,22.70
2019-05-17T05:08:13.160Z,22.13
2019-05-17T05:10:42.907Z,22.27
2019-05-17T05:13:13.271Z,21.20
2019-05-17T05:15:44.338Z,21.03
2019-05-17T05:18:14.098Z,21.60
2019-05-17T05:20:43.989Z,22.50
2019-05-17T05:23:13.562Z,19.33
2019-05-17T05:25:43.429Z,20.13
2019-05-17T05:28:13.284Z,19.80
2019-05-17T05:30:42.547Z,21.37
2019-05-17T05:33:12.992Z,20.30
2019-05-17T05:35:42.915Z,21.27
2019-05-17T05:38:13.143Z,21.97
2019-05-17T05:40:43.136Z,23.00
2019-05-17T05:43:12.445Z,20.43
2019-05-17T05:45:41.977Z,22.03
2019-05-17T05:48:12.829Z,21.70
2019-05-17T05:50:43.513Z,20.73
2019-05-17T05:53:13.199Z,24.63
2019-05-17T05:55:43.169Z,25.47
2019-05-17T05:58:12.904Z,24.53
2019-05-17T06:00:42.960Z,22.77
2019-05-17T06:03:13.029Z,24.00
2019-05-17T06:05:42.656Z,25.33
2019-05-17T06:08:12.561Z,26.07
2019-05-17T06:10:42.936Z,26.97
2019-05-17T06:13:13.103Z,23.90
2019-05-17T06:15:43.211Z,25.47
2019-05-17T06:18:12.998Z,22.80
2019-05-17T06:20:42.255Z,22.23
2019-05-17T06:23:12.198Z,24.47
2019-05-17T06:25:43.501Z,21.97
2019-05-17T06:28:12.932Z,24.17
2019-05-17T06:30:43.125Z,23.10
2019-05-17T06:33:26.738Z,23.13
2019-05-17T06:35:43.634Z,22.33
2019-05-17T06:38:12.896Z,23.23
2019-05-17T06:40:42.324Z,24.07
2019-05-17T06:43:12.994Z,24.47
2019-05-17T06:45:42.666Z,26.10
2019-05-17T06:48:12.153Z,25.17
2019-05-17T06:50:42.849Z,27.70
2019-05-17T06:53:12.613Z,28.17
2019-05-17T06:55:42.682Z,27.57
2019-05-17T06:58:12.504Z,29.77
2019-05-17T07:00:41.779Z,28.93
2019-05-17T07:03:11.830Z,27.53
2019-05-17T07:05:42.978Z,27.87
2019-05-17T07:08:12.331Z,25.70
2019-05-17T07:10:41.682Z,25.70
2019-05-17T07:13:10.997Z,27.07
2019-05-17T07:15:47.455Z,27.97
2019-05-17T07:18:12.221Z,32.80
2019-05-17T07:20:41.471Z,30.00
2019-05-17T07:23:11.017Z,21.47
2019-05-17T07:25:40.536Z,20.60
2019-05-17T07:28:10.341Z,20.40
2019-05-17T07:30:40.327Z,24.63
2019-05-17T07:33:10.241Z,20.17
2019-05-17T07:35:39.987Z,19.73
2019-05-17T07:38:10.599Z,21.83
2019-05-17T07:40:40.211Z,20.50
2019-05-17T07:43:14.364Z,20.70
2019-05-17T07:45:40.740Z,21.23
2019-05-17T07:48:10.273Z,20.57
2019-05-17T07:50:39.981Z,22.23
2019-05-17T07:53:10.387Z,19.73
2019-05-17T07:55:40.179Z,20.27
2019-05-17T07:58:10.111Z,20.57
2019-05-17T08:00:40.259Z,22.83
2019-05-17T08:03:12.713Z,20.53
2019-05-17T08:05:40.640Z,20.80
2019-05-17T08:08:10.010Z,18.13
2019-05-17T08:10:40.993Z,18.97
2019-05-17T08:13:25.160Z,17.13
2019-05-17T08:15:41.150Z,18.57
2019-05-17T08:18:11.110Z,18.30
2019-05-17T08:20:40.577Z,17.47
2019-05-17T08:23:10.740Z,15.93
2019-05-17T08:25:51.900Z,16.67
2019-05-17T08:28:11.323Z,16.93
2019-05-17T08:30:41.169Z,16.60
2019-05-17T08:33:11.184Z,18.03
2019-05-17T08:35:41.167Z,15.60
2019-05-17T08:38:10.720Z,15.77
2019-05-17T08:40:40.728Z,15.10
2019-05-17T08:43:10.286Z,15.13
2019-05-17T08:45:40.645Z,15.47
2019-05-17T08:48:10.424Z,16.33
2019-05-17T08:50:40.351Z,16.63
2019-05-17T08:53:10.641Z,16.23
2019-05-17T08:55:41.034Z,16.07
2019-05-17T08:58:10.741Z,17.07
2019-05-17T09:00:40.972Z,18.37
2019-05-17T09:03:10.917Z,17.93
2019-05-17T09:05:41.775Z,17.77
2019-05-17T09:08:11.540Z,17.37
2019-05-17T09:10:41.182Z,16.23
2019-05-17T09:13:14.362Z,15.80
2019-05-17T09:15:41.598Z,15.50
2019-05-17T09:18:10.869Z,14.50
2019-05-17T09:20:40.705Z,15.03
2019-05-17T09:23:10.202Z,14.63
2019-05-17T09:25:39.913Z,14.13
2019-05-17T09:28:10.155Z,14.60
2019-05-17T09:30:40.734Z,14.50
2019-05-17T09:33:11.294Z,15.50
2019-05-17T09:35:41.282Z,14.57
2019-05-17T09:38:10.690Z,16.33
2019-05-17T09:40:40.376Z,18.87
2019-05-17T09:43:10.350Z,23.00
2019-05-17T09:45:40.574Z,17.23
2019-05-17T09:48:10.511Z,16.60
2019-05-17T09:50:40.235Z,16.10
2019-05-17T09:53:10.726Z,18.00
2019-05-17T09:55:40.481Z,14.50
2019-05-17T09:58:10.187Z,11.80
2019-05-17T10:00:39.652Z,12.40
2019-05-17T10:03:09.898Z,11.97
2019-05-17T10:05:40.544Z,12.47
2019-05-17T10:08:10.876Z,12.13
2019-05-17T10:10:40.460Z,12.47
2019-05-17T10:13:10.210Z,11.50
2019-05-17T10:15:40.852Z,12.33
2019-05-17T10:18:11.291Z,13.63
2019-05-17T10:20:40.957Z,11.47
2019-05-17T10:23:10.638Z,12.80
2019-05-17T10:25:40.327Z,8.57
2019-05-17T10:28:10.228Z,9.03
2019-05-17T10:30:40.134Z,7.40
2019-05-17T10:33:10.097Z,6.90
2019-05-17T10:35:40.582Z,9.33
2019-05-17T10:38:10.608Z,6.60
2019-05-17T10:40:40.973Z,24.90
2019-05-17T10:43:10.532Z,12.97
2019-05-17T10:45:40.331Z,7.97
2019-05-17T10:48:10.411Z,8.10
2019-05-17T10:50:40.663Z,5.70
2019-05-17T10:53:10.468Z,6.83
2019-05-17T10:55:40.081Z,5.83
2019-05-17T10:58:10.113Z,9.27
2019-05-17T11:00:41.299Z,9.43
2019-05-17T11:03:10.785Z,8.13
2019-05-17T11:05:40.448Z,6.67
2019-05-17T11:08:10.635Z,6.67
2019-05-17T11:10:40.327Z,7.03
2019-05-17T11:13:09.643Z,8.73
2019-05-17T11:15:38.861Z,6.90
2019-05-17T11:18:08.145Z,6.40
2019-05-17T11:20:37.408Z,7.20
2019-05-17T11:23:06.746Z,5.60
2019-05-17T11:25:36.281Z,6.77
2019-05-17T11:28:05.719Z,8.23
2019-05-17T11:30:35.031Z,5.90
2019-05-17T11:33:04.363Z,7.43
2019-05-17T11:35:33.585Z,6.90
2019-05-17T11:38:02.989Z,5.10
2019-05-17T11:40:32.939Z,6.20
2019-05-17T11:43:02.280Z,6.00
2019-05-17T11:45:32.748Z,5.80
2019-05-17T11:48:02.438Z,5.73
2019-05-17T11:50:31.664Z,5.63
2019-05-17T11:53:01.306Z,5.90
2019-05-17T11:55:32.999Z,5.17
2019-05-17T11:58:02.308Z,5.07
2019-05-17T12:00:31.751Z,5.33
2019-05-17T12:03:01.585Z,4.50
2019-05-17T12:05:30.899Z,4.80
2019-05-17T12:08:00.147Z,5.10
2019-05-17T12:10:29.480Z,5.37
2019-05-17T12:12:58.821Z,5.17
2019-05-17T12:15:43.792Z,5.30
2019-05-17T12:17:58.985Z,7.00
2019-05-17T12:20:28.413Z,7.50
2019-05-17T12:22:57.655Z,6.30
2019-05-17T12:25:26.942Z,5.27
2019-05-17T12:27:56.226Z,8.63
2019-05-17T12:30:25.543Z,5.55
2019-05-17T12:32:54.941Z,4.70
2019-05-17T12:35:24.304Z,5.53
2019-05-17T12:37:53.699Z,6.05
2019-05-17T12:40:23.067Z,5.53
2019-05-17T12:42:52.316Z,5.20
2019-05-17T12:45:21.649Z,6.45
2019-05-17T12:47:50.977Z,4.90
2019-05-17T12:50:20.315Z,5.30
2019-05-17T12:52:49.518Z,5.55
2019-05-17T12:55:18.841Z,5.40
2019-05-17T12:57:48.183Z,6.30
2019-05-17T13:00:19.553Z,5.45
2019-05-17T13:02:48.840Z,4.95
2019-05-17T13:05:18.092Z,5.67
2019-05-17T13:07:47.345Z,5.45
2019-05-17T13:10:16.596Z,5.62
2019-05-17T13:12:46.423Z,5.57
2019-05-17T13:15:15.824Z,5.30
2019-05-17T13:17:45.130Z,5.33
2019-05-17T13:20:14.947Z,6.43
2019-05-17T13:22:44.261Z,5.50
2019-05-17T13:25:13.698Z,5.47
2019-05-17T13:27:42.946Z,5.72
2019-05-17T13:30:12.931Z,5.90
2019-05-17T13:32:42.461Z,4.92
2019-05-17T13:35:12.715Z,4.97
2019-05-17T13:37:42.093Z,4.85
2019-05-17T13:40:11.719Z,4.90
2019-05-17T13:42:41.079Z,4.85
2019-05-17T13:45:11.138Z,4.30
2019-05-17T13:47:40.464Z,4.62
2019-05-17T13:50:10.028Z,4.90
2019-05-17T13:52:39.338Z,5.20
2019-05-17T13:55:09.975Z,5.17
2019-05-17T13:57:39.243Z,5.40
2019-05-17T14:00:09.185Z,4.60
2019-05-17T14:02:38.505Z,4.70
2019-05-17T14:05:08.840Z,4.12
2019-05-17T14:07:38.084Z,4.00
2019-05-17T14:10:24.565Z,4.25
2019-05-17T14:12:39.188Z,4.72
2019-05-17T14:15:10.257Z,4.08
2019-05-17T14:17:39.510Z,3.98
2019-05-17T14:20:08.851Z,4.08
2019-05-17T14:22:38.150Z,4.20
2019-05-17T14:25:08.758Z,4.78
2019-05-17T14:27:37.982Z,5.20
2019-05-17T14:30:08.080Z,4.85
2019-05-17T14:32:37.286Z,4.97
2019-05-17T14:35:06.709Z,4.15
2019-05-17T14:37:35.968Z,4.72
2019-05-17T14:40:05.755Z,4.30
2019-05-17T14:42:34.993Z,4.92
2019-05-17T14:45:04.324Z,4.65
2019-05-17T14:47:33.720Z,4.62
2019-05-17T14:50:02.976Z,76.35
2019-05-17T14:52:32.413Z,64.62
2019-05-17T14:55:01.810Z,5.40
2019-05-17T14:57:31.171Z,4.85
2019-05-17T15:00:00.435Z,4.62
2019-05-17T15:02:29.748Z,29.75
2019-05-17T15:04:59.015Z,108.15
2019-05-17T15:07:28.331Z,4.97
2019-05-17T15:09:57.738Z,5.37
2019-05-17T15:12:28.816Z,5.70
2019-05-17T15:14:58.025Z,4.70
2019-05-17T15:17:27.209Z,4.78
2019-05-17T15:19:56.458Z,4.72
2019-05-17T15:22:25.779Z,4.40
2019-05-17T15:24:55.119Z,4.33
2019-05-17T15:27:24.467Z,4.37
2019-05-17T15:29:53.622Z,4.35
2019-05-17T15:32:22.853Z,3.90
2019-05-17T15:34:52.133Z,3.85
2019-05-17T15:37:21.386Z,4.25
2019-05-17T15:39:50.634Z,3.80
2019-05-17T15:42:19.943Z,3.95
2019-05-17T15:44:49.230Z,3.75
2019-05-17T15:47:18.861Z,3.92
2019-05-17T15:49:48.095Z,4.20
2019-05-17T15:52:17.414Z,3.75
2019-05-17T15:54:48.667Z,4.08
2019-05-17T15:57:18.035Z,4.30
2019-05-17T15:59:47.303Z,4.08
2019-05-17T16:02:16.559Z,4.10
2019-05-17T16:04:45.817Z,3.87
2019-05-17T16:07:15.144Z,4.25
2019-05-17T16:09:44.437Z,4.72
2019-05-17T16:12:14.031Z,4.30
2019-05-17T16:14:43.338Z,5.12
2019-05-17T16:17:12.663Z,7.92
2019-05-17T16:19:41.904Z,4.78
2019-05-17T16:22:11.243Z,4.90
2019-05-17T16:24:40.539Z,7.10
2019-05-17T16:27:09.899Z,4.60
2019-05-17T16:29:39.136Z,6.10
2019-05-17T16:32:08.383Z,6.20
2019-05-17T16:34:39.159Z,5.10
2019-05-17T16:37:08.506Z,18.73
2019-05-17T16:39:37.839Z,15.60
2019-05-17T16:42:08.082Z,17.00
2019-05-17T16:44:37.349Z,9.58
2019-05-17T16:47:06.613Z,9.85
2019-05-17T16:49:35.881Z,9.40
2019-05-17T16:52:05.469Z,7.35
2019-05-17T16:54:34.795Z,10.48
2019-05-17T16:57:04.337Z,5.87
2019-05-17T16:59:34.018Z,7.65
2019-05-17T17:02:03.702Z,9.13
2019-05-17T17:04:33.075Z,7.75
2019-05-17T17:07:02.383Z,6.22
2019-05-17T17:09:31.670Z,6.15
2019-05-17T17:12:01.031Z,7.20
2019-05-17T17:14:30.353Z,7.72
2019-05-17T17:16:59.651Z,9.93
2019-05-17T17:19:28.895Z,15.15
2019-05-17T17:21:58.261Z,12.82
2019-05-17T17:24:27.690Z,12.45
2019-05-17T17:26:57.045Z,7.67
2019-05-17T17:29:29.454Z,7.95
2019-05-17T17:31:58.868Z,8.48
2019-05-17T17:34:28.171Z,8.08
2019-05-17T17:36:58.111Z,8.50
2019-05-17T17:39:27.444Z,8.55
2019-05-17T17:41:56.792Z,7.25
2019-05-17T17:44:26.127Z,8.25
2019-05-17T17:46:55.431Z,8.35
2019-05-17T17:49:25.051Z,8.40
2019-05-17T17:51:54.422Z,7.90
2019-05-17T17:54:23.749Z,8.43
2019-05-17T17:56:52.994Z,8.83
2019-05-17T17:59:22.212Z,8.10
2019-05-17T18:01:51.596Z,9.00
2019-05-17T18:04:20.878Z,8.78
2019-05-17T18:06:50.549Z,9.33
2019-05-17T18:09:19.908Z,8.53
2019-05-17T18:11:49.144Z,9.53
2019-05-17T18:14:18.571Z,9.18
2019-05-17T18:16:47.807Z,9.90
2019-05-17T18:19:17.052Z,9.10
2019-05-17T18:21:46.317Z,9.43
2019-05-17T18:24:15.675Z,9.55
2019-05-17T18:26:45.008Z,11.05
2019-05-17T18:29:14.361Z,10.47
2019-05-17T18:31:43.587Z,9.85
2019-05-17T18:34:12.842Z,10.18
2019-05-17T18:36:42.650Z,11.73
2019-05-17T18:39:11.985Z,11.60
2019-05-17T18:41:41.301Z,12.28
2019-05-17T18:44:10.610Z,12.77
2019-05-17T18:46:39.967Z,12.63
2019-05-17T18:49:09.306Z,14.73
2019-05-17T18:51:38.656Z,14.33
2019-05-17T18:54:10.154Z,13.37
2019-05-17T18:56:39.543Z,12.77
2019-05-17T18:59:08.802Z,12.83
2019-05-17T19:01:38.171Z,15.53
2019-05-17T19:04:07.526Z,23.93
2019-05-17T19:06:36.767Z,24.50
2019-05-17T19:09:07.921Z,21.83
2019-05-17T19:11:37.268Z,20.70
2019-05-17T19:14:06.573Z,21.47
2019-05-17T19:16:35.893Z,16.73
2019-05-17T19:19:05.195Z,15.30
2019-05-17T19:21:34.534Z,31.50
2019-05-17T19:24:03.891Z,31.93
2019-05-17T19:26:33.171Z,31.03
2019-05-17T19:29:02.560Z,42.80
2019-05-17T19:31:31.770Z,25.07
2019-05-17T19:34:01.028Z,38.60
2019-05-17T19:36:58.218Z,45.50
2019-05-17T19:39:27.475Z,54.13
2019-05-17T19:41:56.747Z,56.07
2019-05-17T19:44:26.019Z,74.90
2019-05-17T19:46:55.952Z,155.03
2019-05-17T19:49:25.740Z,95.70
2019-05-17T19:51:55.070Z,77.30
2019-05-17T19:54:24.408Z,78.87
2019-05-17T19:56:54.489Z,79.80
2019-05-17T19:59:23.758Z,70.23
2019-05-17T20:01:53.045Z,62.77
2019-05-17T20:04:22.418Z,51.40
2019-05-17T20:06:51.683Z,52.40
2019-05-17T20:09:21.091Z,40.80
2019-05-17T20:11:50.897Z,39.20
2019-05-17T20:14:20.107Z,39.37
2019-05-17T20:16:49.379Z,37.93
2019-05-17T20:19:18.640Z,40.00
2019-05-17T20:21:47.881Z,38.23
2019-05-17T20:24:17.209Z,29.30
2019-05-17T20:26:46.450Z,26.87
2019-05-17T20:29:15.772Z,25.90
2019-05-17T20:31:45.037Z,35.50
2019-05-17T20:34:14.474Z,48.57
2019-05-17T20:36:43.725Z,77.30
2019-05-17T20:39:12.999Z,67.70
2019-05-17T20:41:42.324Z,89.10
2019-05-17T20:44:11.744Z,157.30
2019-05-17T20:46:41.033Z,123.63
2019-05-17T20:49:10.347Z,46.47
2019-05-17T20:51:39.787Z,36.63
2019-05-17T20:54:09.077Z,42.00
2019-05-17T20:56:38.410Z,40.80
2019-05-17T20:59:07.890Z,114.10
2019-05-17T21:01:38.857Z,109.47
2019-05-17T21:04:08.984Z,79.03
2019-05-17T21:06:38.396Z,65.53
2019-05-17T21:09:08.514Z,89.17
2019-05-17T21:11:37.884Z,80.60
2019-05-17T21:14:07.840Z,51.03
2019-05-17T21:16:37.144Z,73.20
2019-05-17T21:19:06.486Z,36.40
2019-05-17T21:21:35.811Z,33.53
2019-05-17T21:24:05.155Z,29.23
2019-05-17T21:26:34.500Z,32.73
2019-05-17T21:29:03.819Z,36.67
2019-05-17T21:31:33.144Z,38.60
2019-05-17T21:34:02.491Z,38.97
2019-05-17T21:36:31.883Z,39.87
2019-05-17T21:39:01.195Z,36.17
2019-05-17T21:41:30.483Z,23.10
2019-05-17T21:43:59.824Z,22.43
2019-05-17T21:46:29.009Z,28.43
2019-05-17T21:48:58.327Z,26.77
2019-05-17T21:51:27.611Z,30.30
2019-05-17T21:53:56.854Z,53.87
2019-05-17T21:56:26.083Z,37.30
2019-05-17T21:58:55.335Z,31.37
2019-05-17T22:01:26.718Z,90.10
2019-05-17T22:03:56.069Z,100.33
2019-05-17T22:06:25.382Z,65.43
2019-05-17T22:08:54.730Z,46.40
2019-05-17T22:11:23.978Z,72.43
2019-05-17T22:13:53.219Z,22.80
2019-05-17T22:16:22.847Z,33.67
2019-05-17T22:18:52.172Z,46.40
2019-05-17T22:21:21.404Z,37.73
2019-05-17T22:23:50.648Z,34.03
2019-05-17T22:26:19.965Z,29.97
2019-05-17T22:28:49.247Z,28.50
2019-05-17T22:31:18.522Z,23.37
2019-05-17T22:33:48.276Z,22.67
2019-05-17T22:36:17.939Z,23.70
2019-05-17T22:38:47.166Z,42.97
2019-05-17T22:41:16.493Z,58.97
2019-05-17T22:43:45.742Z,51.43
2019-05-17T22:46:15.031Z,58.97
2019-05-17T22:48:44.375Z,39.77
2019-05-17T22:51:13.627Z,42.77
2019-05-17T22:53:42.963Z,40.43
2019-05-17T22:56:12.290Z,41.77
2019-05-17T22:58:41.602Z,48.90
2019-05-17T23:01:10.837Z,40.70
2019-05-17T23:03:40.069Z,34.03
2019-05-17T23:06:09.353Z,31.00
2019-05-17T23:08:38.595Z,31.50
2019-05-17T23:11:07.907Z,28.30
2019-05-17T23:13:37.197Z,27.30
2019-05-17T23:16:09.655Z,26.50
2019-05-17T23:18:38.909Z,26.67
2019-05-17T23:21:08.228Z,25.53
2019-05-17T23:23:37.961Z,34.33
2019-05-17T23:26:07.222Z,37.80
2019-05-17T23:28:36.454Z,41.80
2019-05-17T23:31:05.766Z,41.70
2019-05-17T23:33:35.042Z,28.80
2019-05-17T23:36:04.334Z,76.93
2019-05-17T23:38:33.630Z,42.17
2019-05-17T23:41:03.002Z,47.47
2019-05-17T23:43:32.306Z,31.53
2019-05-17T23:46:01.574Z,21.20
2019-05-17T23:48:30.841Z,20.20
2019-05-17T23:51:00.175Z,17.47
2019-05-17T23:53:29.483Z,16.90
2019-05-17T23:55:58.744Z,18.00
2019-05-17T23:58:28.110Z,30.17
